createdAt,value
2022-11-18T00:02:16.735Z,2.10
2022-11-18T00:04:45.784Z,2.50
2022-11-18T00:07:13.553Z,2.20
2022-11-18T00:09:41.244Z,2.27
2022-11-18T00:12:26.213Z,1.97
2022-11-18T00:14:53.844Z,2.20
2022-11-18T00:17:21.542Z,1.93
2022-11-18T00:19:50.536Z,2.23
2022-11-18T00:22:18.187Z,2.93
2022-11-18T00:24:45.959Z,2.40
2022-11-18T00:27:13.621Z,2.83
2022-11-18T00:29:41.356Z,2.20
2022-11-18T00:32:09.029Z,3.20
2022-11-18T00:34:36.705Z,2.27
2022-11-18T00:37:05.805Z,2.23
2022-11-18T00:39:33.474Z,2.80
2022-11-18T00:42:18.707Z,2.40
2022-11-18T00:44:46.404Z,2.60
2022-11-18T00:47:14.031Z,2.27
2022-11-18T00:49:41.738Z,2.37
2022-11-18T00:52:10.821Z,2.70
2022-11-18T00:54:38.503Z,3.33
2022-11-18T00:57:06.326Z,3.10
2022-11-18T00:59:34.365Z,3.10
2022-11-18T01:02:02.079Z,2.90
2022-11-18T01:04:29.981Z,2.77
2022-11-18T01:06:57.769Z,3.17
2022-11-18T01:09:26.847Z,3.17
2022-11-18T01:12:12.216Z,3.80
2022-11-18T01:14:39.860Z,3.37
2022-11-18T01:17:07.610Z,3.77
2022-11-18T01:19:35.635Z,2.77
2022-11-18T01:22:03.934Z,3.40
2022-11-18T01:24:34.585Z,3.97
2022-11-18T01:27:02.773Z,3.10
2022-11-18T01:29:30.668Z,3.17
2022-11-18T01:34:46.042Z,2.67
2022-11-18T01:37:13.796Z,2.20
2022-11-18T01:39:42.837Z,2.13
2022-11-18T01:42:15.119Z,3.40
2022-11-18T01:45:19.050Z,4.23
2022-11-18T01:47:51.153Z,3.80
2022-11-18T01:50:21.175Z,3.70
2022-11-18T01:52:52.202Z,3.67
2022-11-18T01:55:25.711Z,4.00
2022-11-18T01:58:00.473Z,4.07
2022-11-18T02:00:28.281Z,4.50
2022-11-18T02:02:56.193Z,4.80
2022-11-18T02:05:24.851Z,5.10
2022-11-18T02:07:52.724Z,4.87
2022-11-18T02:10:25.117Z,4.97
2022-11-18T02:12:54.487Z,4.70
2022-11-18T02:15:31.262Z,5.57
2022-11-18T02:18:05.166Z,5.57
2022-11-18T02:20:37.249Z,5.30
2022-11-18T02:23:40.669Z,5.10
2022-11-18T02:26:38.755Z,5.27
2022-11-18T02:29:11.293Z,4.73
2022-11-18T02:31:47.263Z,5.33
2022-11-18T02:34:23.189Z,5.60
2022-11-18T02:36:58.310Z,5.83
2022-11-18T02:39:34.780Z,5.23
2022-11-18T02:42:05.639Z,5.53
2022-11-18T02:44:36.720Z,6.40
2022-11-18T02:47:09.345Z,5.77
2022-11-18T02:49:41.350Z,6.37
2022-11-18T02:52:11.785Z,6.43
2022-11-18T02:54:42.724Z,5.97
2022-11-18T02:57:10.885Z,6.37
2022-11-18T02:59:40.364Z,6.33
2022-11-18T03:02:08.273Z,6.93
2022-11-18T03:04:36.668Z,7.00
2022-11-18T03:07:12.985Z,7.17
2022-11-18T03:09:43.661Z,6.23
2022-11-18T03:12:19.898Z,7.27
2022-11-18T03:14:58.699Z,7.03
2022-11-18T03:17:38.638Z,6.73
2022-11-18T03:20:16.957Z,6.40
2022-11-18T03:22:50.639Z,7.30
2022-11-18T03:25:24.670Z,6.30
2022-11-18T03:27:58.796Z,6.67
2022-11-18T03:30:30.834Z,6.10
2022-11-18T03:33:03.609Z,5.83
2022-11-18T03:35:36.596Z,6.37
2022-11-18T03:38:08.523Z,5.70
2022-11-18T03:40:39.817Z,5.77
2022-11-18T03:43:11.698Z,5.10
2022-11-18T03:45:46.732Z,4.00
2022-11-18T03:48:17.201Z,3.87
2022-11-18T03:50:50.837Z,4.40
2022-11-18T03:53:20.475Z,4.07
2022-11-18T03:55:52.435Z,3.90
2022-11-18T03:58:29.296Z,3.67
2022-11-18T04:01:05.900Z,4.50
2022-11-18T04:03:33.629Z,4.50
2022-11-18T04:06:09.388Z,3.47
2022-11-18T04:08:41.259Z,4.20
2022-11-18T04:11:35.028Z,4.50
2022-11-18T04:14:05.395Z,3.23
2022-11-18T04:16:40.657Z,2.90
2022-11-18T04:19:08.307Z,2.77
2022-11-18T04:21:36.143Z,2.67
2022-11-18T04:24:03.984Z,2.70
2022-11-18T04:26:32.374Z,2.40
2022-11-18T04:29:00.662Z,2.60
2022-11-18T04:31:28.602Z,2.47
2022-11-18T04:33:57.713Z,2.30
2022-11-18T04:36:25.371Z,2.90
2022-11-18T04:38:53.022Z,3.37
2022-11-18T04:41:20.704Z,3.67
2022-11-18T04:43:48.378Z,3.13
2022-11-18T04:46:16.048Z,3.70
2022-11-18T04:48:43.703Z,3.27
2022-11-18T04:51:12.708Z,1.80
2022-11-18T04:53:40.401Z,2.07
2022-11-18T04:56:08.914Z,3.33
2022-11-18T04:58:36.583Z,3.30
2022-11-18T05:01:04.263Z,2.93
2022-11-18T05:03:32.056Z,2.40
2022-11-18T05:06:02.776Z,2.00
2022-11-18T05:08:32.727Z,2.10
2022-11-18T05:11:20.657Z,1.83
2022-11-18T05:13:47.339Z,2.70
2022-11-18T05:16:15.049Z,2.90
2022-11-18T05:18:42.797Z,2.97
2022-11-18T05:21:10.454Z,2.37
2022-11-18T05:23:39.562Z,2.83
2022-11-18T05:26:08.525Z,3.00
2022-11-18T05:28:36.553Z,3.63
2022-11-18T05:31:08.217Z,3.30
2022-11-18T05:33:35.892Z,4.10
2022-11-18T05:36:10.110Z,6.87
2022-11-18T05:38:39.253Z,3.87
2022-11-18T05:41:07.899Z,4.90
2022-11-18T05:43:35.377Z,4.00
2022-11-18T05:46:04.365Z,3.30
2022-11-18T05:48:32.032Z,3.70
2022-11-18T05:50:59.659Z,4.17
2022-11-18T05:53:27.344Z,3.70
2022-11-18T05:56:01.672Z,2.30
2022-11-18T05:58:32.940Z,3.03
2022-11-18T06:01:09.168Z,3.53
2022-11-18T06:03:39.578Z,2.03
2022-11-18T06:06:10.427Z,2.70
2022-11-18T06:08:45.793Z,2.10
2022-11-18T06:11:19.346Z,1.87
2022-11-18T06:13:50.570Z,1.60
2022-11-18T06:16:21.080Z,1.50
2022-11-18T06:18:49.124Z,1.73
2022-11-18T06:21:17.394Z,1.37
2022-11-18T06:23:46.193Z,1.80
2022-11-18T06:26:17.755Z,1.37
2022-11-18T06:28:48.530Z,1.43
2022-11-18T06:31:17.327Z,1.40
2022-11-18T06:33:45.688Z,1.27
2022-11-18T06:36:14.059Z,1.40
2022-11-18T06:38:42.044Z,2.57
2022-11-18T06:41:10.186Z,1.63
2022-11-18T06:43:43.298Z,1.60
2022-11-18T06:46:31.005Z,2.20
2022-11-18T06:48:59.350Z,1.53
2022-11-18T06:51:28.028Z,1.60
2022-11-18T06:53:56.125Z,1.97
2022-11-18T06:56:24.018Z,1.83
2022-11-18T06:58:57.573Z,2.20
2022-11-18T07:01:26.786Z,2.27
2022-11-18T07:03:55.163Z,2.30
2022-11-18T07:06:24.555Z,1.93
2022-11-18T07:08:53.324Z,2.20
2022-11-18T07:11:23.953Z,1.73
2022-11-18T07:13:52.061Z,2.00
2022-11-18T07:16:23.376Z,1.87
2022-11-18T07:18:52.340Z,1.50
2022-11-18T07:21:21.916Z,1.60
2022-11-18T07:23:50.108Z,2.10
2022-11-18T07:26:18.733Z,2.00
2022-11-18T07:28:46.612Z,2.00
2022-11-18T07:31:16.263Z,1.90
2022-11-18T07:33:46.043Z,2.03
2022-11-18T07:36:16.600Z,2.70
2022-11-18T07:38:44.626Z,3.67
2022-11-18T07:41:14.556Z,2.90
2022-11-18T07:43:43.236Z,3.07
2022-11-18T07:46:15.901Z,3.40
2022-11-18T07:48:46.578Z,3.33
2022-11-18T07:51:15.842Z,2.53
2022-11-18T07:53:44.281Z,2.80
2022-11-18T07:56:12.899Z,2.80
2022-11-18T07:58:41.951Z,3.10
2022-11-18T08:01:10.944Z,3.20
2022-11-18T08:03:39.302Z,3.77
2022-11-18T08:06:10.185Z,4.17
2022-11-18T08:08:38.683Z,3.20
2022-11-18T08:11:08.644Z,3.23
2022-11-18T08:13:37.245Z,3.07
2022-11-18T08:16:06.512Z,3.00
2022-11-18T08:18:34.393Z,2.63
2022-11-18T08:21:04.021Z,2.07
2022-11-18T08:23:36.222Z,1.30
2022-11-18T08:26:08.537Z,1.40
2022-11-18T08:28:36.672Z,1.43
2022-11-18T08:31:10.921Z,1.30
2022-11-18T08:33:38.857Z,1.20
2022-11-18T08:36:08.579Z,1.10
2022-11-18T08:38:38.330Z,1.23
2022-11-18T08:41:07.247Z,1.13
2022-11-18T08:43:36.139Z,1.10
2022-11-18T08:46:03.931Z,1.00
2022-11-18T08:48:31.609Z,0.87
2022-11-18T08:51:00.449Z,0.90
2022-11-18T08:53:28.161Z,1.10
2022-11-18T08:55:58.079Z,0.80
2022-11-18T08:58:26.313Z,0.77
2022-11-18T09:00:54.434Z,0.70
2022-11-18T09:03:22.642Z,0.83
2022-11-18T09:05:50.745Z,0.70
2022-11-18T09:08:18.593Z,0.70
2022-11-18T09:10:46.298Z,0.70
2022-11-18T09:16:03.332Z,0.77
2022-11-18T09:18:31.773Z,0.60
2022-11-18T09:21:01.673Z,0.60
2022-11-18T09:23:29.552Z,0.50
2022-11-18T09:26:01.356Z,0.70
2022-11-18T09:28:31.284Z,0.50
2022-11-18T09:30:59.502Z,0.43
2022-11-18T09:33:28.797Z,0.50
2022-11-18T09:35:56.591Z,0.40
2022-11-18T09:38:24.564Z,0.60
2022-11-18T09:41:03.655Z,0.50
2022-11-18T09:43:42.695Z,0.30
2022-11-18T09:46:26.333Z,0.40
2022-11-18T09:49:16.822Z,0.50
2022-11-18T09:51:47.663Z,0.40
2022-11-18T09:54:21.602Z,0.30
2022-11-18T09:56:51.793Z,0.30
2022-11-18T09:59:25.281Z,0.30
2022-11-18T10:01:56.390Z,0.33
2022-11-18T10:04:24.397Z,0.50
2022-11-18T10:06:52.831Z,0.30
2022-11-18T10:09:38.215Z,0.30
2022-11-18T10:12:19.235Z,0.40
2022-11-18T10:15:21.685Z,0.37
2022-11-18T10:18:00.947Z,0.40
2022-11-18T10:20:44.409Z,0.40
2022-11-18T10:23:18.236Z,0.40
2022-11-18T10:25:46.164Z,0.43
2022-11-18T10:28:22.043Z,0.40
2022-11-18T10:30:51.848Z,0.40
2022-11-18T10:33:26.400Z,0.40
2022-11-18T10:36:19.569Z,0.40
2022-11-18T10:38:50.083Z,0.50
2022-11-18T10:41:21.697Z,0.50
2022-11-18T10:43:51.812Z,0.40
2022-11-18T10:46:27.146Z,0.40
2022-11-18T10:49:16.485Z,0.60
2022-11-18T10:51:45.694Z,0.57
2022-11-18T10:54:17.783Z,17.97
2022-11-18T10:56:50.225Z,0.70
2022-11-18T10:59:31.496Z,0.50
2022-11-18T11:02:09.661Z,0.43
2022-11-18T11:04:39.343Z,0.50
2022-11-18T11:07:18.642Z,0.50
2022-11-18T11:09:54.216Z,0.50
2022-11-18T11:12:22.095Z,0.40
2022-11-18T11:14:54.355Z,0.50
2022-11-18T11:17:29.882Z,0.50
2022-11-18T11:20:07.248Z,0.50
2022-11-18T11:22:36.352Z,0.50
2022-11-18T11:25:07.195Z,0.60
2022-11-18T11:30:46.636Z,0.60
2022-11-18T11:33:27.594Z,0.70
2022-11-18T11:36:06.669Z,0.50
2022-11-18T11:38:48.343Z,0.60
2022-11-18T11:41:22.998Z,0.60
2022-11-18T11:44:17.868Z,0.70
2022-11-18T11:47:10.152Z,0.70
2022-11-18T11:49:53.276Z,0.70
2022-11-18T11:52:33.406Z,0.60
2022-11-18T11:55:14.291Z,0.60
2022-11-18T11:58:00.441Z,0.70
2022-11-18T12:00:28.939Z,0.67
2022-11-18T12:03:15.602Z,0.60
2022-11-18T12:05:44.911Z,0.60
2022-11-18T12:08:17.029Z,0.70
2022-11-18T12:10:48.930Z,0.53
2022-11-18T12:13:33.430Z,0.60
2022-11-18T12:16:11.846Z,0.70
2022-11-18T12:18:43.458Z,0.90
2022-11-18T12:21:53.445Z,0.77
2022-11-18T12:24:33.076Z,0.90
2022-11-18T12:27:03.006Z,0.80
2022-11-18T12:29:42.946Z,0.83
2022-11-18T12:32:32.661Z,1.13
2022-11-18T12:35:03.954Z,0.60
2022-11-18T12:37:58.484Z,0.70
2022-11-18T12:40:52.744Z,0.60
2022-11-18T12:44:05.530Z,0.60
2022-11-18T12:46:50.316Z,0.60
2022-11-18T12:49:55.495Z,0.50
2022-11-18T12:52:53.759Z,0.70
2022-11-18T12:55:31.787Z,0.60
2022-11-18T12:57:59.616Z,0.60
2022-11-18T13:00:52.173Z,0.73
2022-11-18T13:03:30.671Z,0.50
2022-11-18T13:06:18.045Z,0.70
2022-11-18T13:08:52.527Z,0.63
2022-11-18T13:11:39.018Z,0.60
2022-11-18T13:14:39.653Z,0.60
2022-11-18T13:17:44.232Z,0.60
2022-11-18T13:20:27.392Z,0.70
2022-11-18T13:23:14.699Z,0.70
2022-11-18T13:25:45.265Z,0.63
2022-11-18T13:28:24.914Z,0.70
2022-11-18T13:31:00.101Z,0.50
2022-11-18T13:33:28.005Z,0.87
2022-11-18T13:35:55.859Z,0.60
2022-11-18T13:38:28.479Z,0.60
2022-11-18T13:41:08.300Z,0.70
2022-11-18T13:43:36.495Z,0.70
2022-11-18T13:46:08.490Z,0.60
2022-11-18T13:48:41.996Z,0.63
2022-11-18T13:51:09.938Z,0.67
2022-11-18T13:53:39.521Z,0.70
2022-11-18T13:56:17.600Z,0.80
2022-11-18T14:01:40.142Z,0.70
2022-11-18T14:04:17.292Z,0.70
2022-11-18T14:06:45.364Z,0.80
2022-11-18T14:09:26.404Z,0.80
2022-11-18T14:12:05.479Z,0.80
2022-11-18T14:14:34.757Z,0.70
2022-11-18T14:17:17.543Z,0.93
2022-11-18T14:19:46.652Z,0.67
2022-11-18T14:22:17.440Z,0.80
2022-11-18T14:24:46.252Z,0.80
2022-11-18T14:27:36.681Z,0.80
2022-11-18T14:30:43.106Z,0.50
2022-11-18T14:33:16.676Z,0.70
2022-11-18T14:35:46.322Z,0.60
2022-11-18T14:38:36.654Z,0.70
2022-11-18T14:41:07.358Z,0.80
2022-11-18T14:43:36.846Z,0.73
2022-11-18T14:46:07.531Z,0.70
2022-11-18T14:48:35.830Z,0.70
2022-11-18T14:51:03.784Z,0.70
2022-11-18T14:53:31.710Z,0.57
2022-11-18T14:56:00.933Z,0.80
2022-11-18T14:58:28.846Z,0.80
2022-11-18T15:00:58.088Z,0.70
2022-11-18T15:03:25.970Z,0.70
2022-11-18T15:05:53.778Z,0.80
2022-11-18T15:08:21.680Z,0.73
2022-11-18T15:10:50.747Z,0.70
2022-11-18T15:13:18.550Z,0.70
2022-11-18T15:15:46.305Z,0.80
2022-11-18T15:18:15.523Z,0.77
2022-11-18T15:20:43.339Z,0.90
2022-11-18T15:23:11.214Z,0.80
2022-11-18T15:25:39.132Z,0.80
2022-11-18T15:28:06.901Z,0.90
2022-11-18T15:30:34.574Z,1.00
2022-11-18T15:33:02.393Z,0.97
2022-11-18T15:35:31.474Z,0.90
2022-11-18T15:37:59.196Z,1.03
2022-11-18T15:40:26.949Z,1.00
2022-11-18T15:42:54.760Z,1.30
2022-11-18T15:45:22.551Z,1.17
2022-11-18T15:47:52.609Z,1.20
2022-11-18T15:50:20.327Z,1.17
2022-11-18T15:52:49.446Z,1.10
2022-11-18T15:55:17.235Z,1.43
2022-11-18T15:57:44.948Z,1.23
2022-11-18T16:00:14.033Z,1.43
2022-11-18T16:02:45.233Z,1.30
2022-11-18T16:05:13.499Z,1.47
2022-11-18T16:07:41.350Z,1.37
2022-11-18T16:10:28.971Z,1.60
2022-11-18T16:12:56.808Z,1.43
2022-11-18T16:15:41.894Z,1.87
2022-11-18T16:18:09.763Z,2.13
2022-11-18T16:20:37.949Z,1.83
2022-11-18T16:23:05.789Z,2.13
2022-11-18T16:25:35.027Z,1.90
2022-11-18T16:28:07.156Z,2.20
2022-11-18T16:30:52.833Z,2.50
2022-11-18T16:33:20.691Z,2.53
2022-11-18T16:35:48.915Z,3.03
2022-11-18T16:38:16.640Z,3.30
2022-11-18T16:40:45.629Z,2.93
2022-11-18T16:43:13.387Z,3.20
2022-11-18T16:45:41.185Z,2.40
2022-11-18T16:48:08.932Z,2.93
2022-11-18T16:50:36.727Z,2.70
2022-11-18T16:53:04.457Z,2.97
2022-11-18T16:55:32.228Z,3.40
2022-11-18T16:58:01.278Z,3.37
2022-11-18T17:00:51.660Z,2.93
2022-11-18T17:03:16.767Z,3.40
2022-11-18T17:05:44.605Z,3.87
2022-11-18T17:08:12.374Z,3.07
2022-11-18T17:10:40.083Z,3.40
2022-11-18T17:13:09.195Z,3.30
2022-11-18T17:15:37.137Z,3.53
2022-11-18T17:18:05.077Z,3.47
2022-11-18T17:20:32.905Z,3.63
2022-11-18T17:23:00.560Z,3.60
2022-11-18T17:25:28.292Z,3.37
2022-11-18T17:27:55.986Z,3.33
2022-11-18T17:30:24.963Z,3.73
2022-11-18T17:32:52.699Z,3.30
2022-11-18T17:35:20.372Z,4.03
2022-11-18T17:37:48.192Z,3.27
2022-11-18T17:40:15.980Z,4.30
2022-11-18T17:42:43.685Z,3.73
2022-11-18T17:45:11.784Z,3.80
2022-11-18T17:47:40.801Z,3.43
2022-11-18T17:50:09.561Z,3.70
2022-11-18T17:52:37.391Z,3.47
2022-11-18T17:55:07.037Z,2.83
2022-11-18T17:57:34.888Z,3.37
2022-11-18T18:00:02.976Z,4.23
2022-11-18T18:02:30.752Z,3.20
2022-11-18T18:04:59.876Z,3.40
2022-11-18T18:07:30.736Z,3.37
2022-11-18T18:09:58.458Z,3.20
2022-11-18T18:12:44.014Z,3.13
2022-11-18T18:15:11.797Z,2.67
2022-11-18T18:17:39.488Z,3.43
2022-11-18T18:20:09.617Z,2.57
2022-11-18T18:22:37.411Z,2.50
2022-11-18T18:25:05.764Z,2.77
2022-11-18T18:27:33.451Z,3.10
2022-11-18T18:30:01.114Z,2.87
2022-11-18T18:32:29.477Z,2.60
2022-11-18T18:34:57.251Z,2.40
2022-11-18T18:37:26.357Z,2.27
2022-11-18T18:39:54.637Z,2.50
2022-11-18T18:42:22.400Z,2.23
2022-11-18T18:45:07.401Z,2.20
2022-11-18T18:47:35.976Z,2.40
2022-11-18T18:50:04.120Z,2.80
2022-11-18T18:52:33.782Z,2.93
2022-11-18T18:55:01.500Z,2.80
2022-11-18T18:57:29.881Z,2.60
2022-11-18T18:59:57.546Z,2.20
2022-11-18T19:02:25.256Z,2.10
2022-11-18T19:04:53.695Z,2.00
2022-11-18T19:07:21.469Z,1.73
2022-11-18T19:09:50.632Z,1.70
2022-11-18T19:12:35.746Z,1.50
2022-11-18T19:15:03.623Z,1.83
2022-11-18T19:17:31.422Z,2.40
2022-11-18T19:20:16.783Z,2.37
2022-11-18T19:22:44.445Z,2.30
2022-11-18T19:25:13.537Z,2.23
2022-11-18T19:27:41.283Z,2.70
2022-11-18T19:30:11.540Z,2.93
2022-11-18T19:32:40.346Z,1.80
2022-11-18T19:35:08.944Z,2.03
2022-11-18T19:37:37.221Z,1.50
2022-11-18T19:40:09.074Z,1.40
2022-11-18T19:42:40.645Z,1.70
2022-11-18T19:45:09.203Z,1.70
2022-11-18T19:47:36.995Z,2.07
2022-11-18T19:50:05.267Z,1.70
2022-11-18T19:52:32.988Z,1.60
2022-11-18T19:55:00.620Z,1.50
2022-11-18T19:57:28.297Z,1.30
2022-11-18T19:59:57.662Z,1.37
2022-11-18T20:02:25.663Z,1.40
2022-11-18T20:05:10.712Z,1.50
2022-11-18T20:07:38.601Z,1.30
2022-11-18T20:10:09.915Z,1.30
2022-11-18T20:12:37.814Z,1.33
2022-11-18T20:15:08.689Z,1.07
2022-11-18T20:17:36.594Z,1.20
2022-11-18T20:20:04.699Z,1.40
2022-11-18T20:22:32.574Z,1.63
2022-11-18T20:25:01.234Z,1.37
2022-11-18T20:27:28.980Z,1.13
2022-11-18T20:29:56.867Z,1.20
2022-11-18T20:32:26.351Z,1.20
2022-11-18T20:34:54.118Z,1.40
2022-11-18T20:37:27.767Z,1.53
2022-11-18T20:39:56.060Z,1.50
2022-11-18T20:42:41.683Z,1.50
2022-11-18T20:45:11.331Z,2.10
2022-11-18T20:47:41.700Z,2.70
2022-11-18T20:50:10.158Z,2.67
2022-11-18T20:52:38.033Z,2.23
2022-11-18T20:55:06.650Z,1.97
2022-11-18T20:57:34.579Z,2.17
2022-11-18T21:00:02.659Z,1.87
2022-11-18T21:02:31.385Z,1.57
2022-11-18T21:05:00.689Z,1.30
2022-11-18T21:07:28.783Z,1.43
2022-11-18T21:09:56.742Z,1.57
2022-11-18T21:12:24.596Z,1.30
2022-11-18T21:14:51.388Z,1.53
2022-11-18T21:17:19.245Z,1.23
2022-11-18T21:19:48.542Z,1.57
2022-11-18T21:22:16.783Z,1.70
2022-11-18T21:24:45.305Z,1.30
2022-11-18T21:27:13.100Z,1.30
2022-11-18T21:29:41.969Z,1.40
2022-11-18T21:32:11.333Z,1.30
2022-11-18T21:34:39.142Z,1.33
2022-11-18T21:37:06.979Z,1.30
2022-11-18T21:39:36.144Z,1.33
2022-11-18T21:42:03.988Z,1.37
2022-11-18T21:44:31.764Z,1.63
2022-11-18T21:46:59.583Z,1.73
2022-11-18T21:49:28.068Z,2.00
2022-11-18T21:51:55.897Z,1.50
2022-11-18T21:54:23.770Z,1.70
2022-11-18T21:56:53.726Z,1.83
2022-11-18T21:59:22.816Z,1.90
2022-11-18T22:01:50.635Z,2.00
2022-11-18T22:04:32.477Z,2.37
2022-11-18T22:07:00.338Z,2.33
2022-11-18T22:09:33.025Z,2.30
2022-11-18T22:12:06.627Z,2.13
2022-11-18T22:14:34.536Z,2.00
2022-11-18T22:17:02.524Z,1.90
2022-11-18T22:19:30.738Z,2.07
2022-11-18T22:21:58.850Z,1.80
2022-11-18T22:24:27.238Z,2.10
2022-11-18T22:26:55.165Z,2.90
2022-11-18T22:29:26.225Z,2.77
2022-11-18T22:31:54.354Z,2.27
2022-11-18T22:34:22.139Z,2.30
2022-11-18T22:36:49.951Z,2.23
2022-11-18T22:39:18.587Z,2.07
2022-11-18T22:42:04.381Z,2.90
2022-11-18T22:44:33.587Z,2.33
2022-11-18T22:47:01.375Z,2.20
2022-11-18T22:49:29.236Z,2.33
2022-11-18T22:51:57.333Z,2.23
2022-11-18T22:54:41.696Z,2.50
2022-11-18T22:57:09.796Z,2.50
2022-11-18T22:59:39.012Z,2.30
2022-11-18T23:02:07.345Z,1.50
2022-11-18T23:04:35.496Z,1.30
2022-11-18T23:07:03.617Z,1.50
2022-11-18T23:09:32.676Z,1.40
2022-11-18T23:12:17.713Z,1.53
2022-11-18T23:14:47.313Z,1.63
2022-11-18T23:17:16.057Z,1.40
2022-11-18T23:19:44.194Z,1.73
2022-11-18T23:22:12.553Z,1.70
2022-11-18T23:24:40.385Z,1.77
2022-11-18T23:27:08.198Z,1.47
2022-11-18T23:29:35.980Z,1.50
2022-11-18T23:32:05.701Z,1.73
2022-11-18T23:34:33.469Z,1.67
2022-11-18T23:37:01.165Z,1.50
2022-11-18T23:39:29.258Z,1.40
2022-11-18T23:41:57.009Z,1.90
2022-11-18T23:44:44.634Z,1.50
2022-11-18T23:47:13.907Z,1.87
2022-11-18T23:49:41.741Z,1.60
2022-11-18T23:52:09.434Z,2.20
2022-11-18T23:54:37.119Z,2.13
2022-11-18T23:57:05.553Z,1.80
2022-11-18T23:59:33.583Z,2.20
